Terminal Aerodrome Forecast
Issued by NWS Upton, NY

Home | Current Version | Previous Version | Text Only | Print | Product List | Glossary On
Versions: 1 2 3 4 5 6 7 8 9 10 11 12 13 14 15 16 17 18 19 20 21 22 23 24 25 26
000
FTUS41 KOKX 232300
TAFLGA
TAF
KLGA 232327Z 2400/2424 20011KT P6SM FEW060 SCT090 BKN250
      TEMPO 2400/2402 3SM TSRA SCT020 BKN050CB
     FM240200 25012KT 5SM SHRA BR VCTS BKN040CB OVC120
     FM240700 35013KT P6SM SCT050 OVC150
     FM241300 36012G20KT P6SM SCT050 SCT150 BKN250
     FM242200 36009KT P6SM FEW050 BKN250=

USA.gov is the U.S. government's official web portal to all federal, state and local government web resources and services.